Terminal Aerodrome Forecast
Issued by NWS

Home | Current Version | Previous Version | Text Only | Print | Product List | Glossary On
Versions: 1 2 3 4 5 6 7 8 9 10 11 12 13 14 15 16 17 18 19 20 21 22 23 24 25 26 27 28 29
000
FTAK31 PANC 160703 AAA
TAFASN
TAF AMD
PASN 160703Z 1607/1706 02008KT P6SM VCSH SCT007 BKN015 OVC050
      TEMPO 1607/1609 6SM -SN BR BKN007
     FM160900 33015G25KT 3SM -SHSN BLSN OVC010
     FM162100 34030G38KT 1SM -SHSN BLSN OVC010=

USA.gov is the U.S. government's official web portal to all federal, state and local government web resources and services.